sensor_id;sensor_type;location;lat;lon;timestamp;pressure;altitude;pressure_sealevel;temperature;humidity
7178;BME280;3630;42.146;24.756;2023-01-31T00:00:16;98982.69;;;4.60;50.80
7178;BME280;3630;42.146;24.756;2023-01-31T00:02:45;98978.84;;;4.73;49.68
7178;BME280;3630;42.146;24.756;2023-01-31T00:05:11;98996.28;;;4.89;49.57
7178;BME280;3630;42.146;24.756;2023-01-31T00:07:41;98975.81;;;4.85;48.61
7178;BME280;3630;42.146;24.756;2023-01-31T00:10:09;98994.84;;;4.97;48.73
7178;BME280;3630;42.146;24.756;2023-01-31T00:12:36;99002.63;;;5.02;49.16
7178;BME280;3630;42.146;24.756;2023-01-31T00:15:04;98994.16;;;5.03;48.80
7178;BME280;3630;42.146;24.756;2023-01-31T00:17:30;98992.56;;;5.06;49.17
7178;BME280;3630;42.146;24.756;2023-01-31T00:19:58;98996.78;;;5.04;50.40
7178;BME280;3630;42.146;24.756;2023-01-31T00:22:25;98992.72;;;5.11;49.61
7178;BME280;3630;42.146;24.756;2023-01-31T00:24:52;98995.22;;;5.09;48.96
7178;BME280;3630;42.146;24.756;2023-01-31T00:27:19;99000.22;;;5.06;49.36
7178;BME280;3630;42.146;24.756;2023-01-31T00:29:46;98990.13;;;5.09;49.49
7178;BME280;3630;42.146;24.756;2023-01-31T00:32:13;98992.72;;;5.11;48.93
7178;BME280;3630;42.146;24.756;2023-01-31T00:34:39;98999.59;;;5.13;48.77
7178;BME280;3630;42.146;24.756;2023-01-31T00:37:08;98992.75;;;5.12;49.39
7178;BME280;3630;42.146;24.756;2023-01-31T00:39:34;98980.72;;;5.07;49.62
7178;BME280;3630;42.146;24.756;2023-01-31T00:42:01;98979.84;;;5.06;49.35
7178;BME280;3630;42.146;24.756;2023-01-31T00:44:28;98985.84;;;5.08;48.95
7178;BME280;3630;42.146;24.756;2023-01-31T00:46:55;98980.69;;;5.05;49.22
7178;BME280;3630;42.146;24.756;2023-01-31T00:49:21;98983.25;;;5.05;50.10
7178;BME280;3630;42.146;24.756;2023-01-31T00:51:48;98955.81;;;4.97;49.62
7178;BME280;3630;42.146;24.756;2023-01-31T00:54:17;98979.81;;;5.05;49.87
7178;BME280;3630;42.146;24.756;2023-01-31T00:56:43;98976.53;;;5.09;50.55
7178;BME280;3630;42.146;24.756;2023-01-31T00:59:10;98979.13;;;5.10;50.57
7178;BME280;3630;42.146;24.756;2023-01-31T01:01:37;98995.34;;;5.14;50.63
7178;BME280;3630;42.146;24.756;2023-01-31T01:04:04;98992.75;;;5.12;49.93
7178;BME280;3630;42.146;24.756;2023-01-31T01:06:31;98987.09;;;5.22;50.03
7178;BME280;3630;42.146;24.756;2023-01-31T01:08:58;98988.94;;;5.26;50.41
7178;BME280;3630;42.146;24.756;2023-01-31T01:11:28;98995.75;;;5.27;50.44
7178;BME280;3630;42.146;24.756;2023-01-31T01:13:56;98991.50;;;5.28;50.36
7178;BME280;3630;42.146;24.756;2023-01-31T01:16:25;98989.03;;;5.29;50.62
7178;BME280;3630;42.146;24.756;2023-01-31T01:18:52;98981.34;;;5.28;50.73
7178;BME280;3630;42.146;24.756;2023-01-31T01:21:21;98979.63;;;5.27;50.76
7178;BME280;3630;42.146;24.756;2023-01-31T01:23:49;98987.38;;;5.31;50.89
7178;BME280;3630;42.146;24.756;2023-01-31T01:26:18;98989.28;;;5.38;50.72
7178;BME280;3630;42.146;24.756;2023-01-31T01:28:46;98994.31;;;5.35;51.73
7178;BME280;3630;42.146;24.756;2023-01-31T01:31:14;98996.22;;;5.44;51.97
7178;BME280;3630;42.146;24.756;2023-01-31T01:33:41;98987.66;;;5.41;52.36
7178;BME280;3630;42.146;24.756;2023-01-31T01:36:10;98987.66;;;5.41;52.79
7178;BME280;3630;42.146;24.756;2023-01-31T01:38:38;98982.47;;;5.38;53.07
7178;BME280;3630;42.146;24.756;2023-01-31T01:41:06;98975.53;;;5.33;54.12
7178;BME280;3630;42.146;24.756;2023-01-31T01:43:38;98980.81;;;5.40;53.26
7178;BME280;3630;42.146;24.756;2023-01-31T01:46:08;98974.06;;;5.40;53.95
7178;BME280;3630;42.146;24.756;2023-01-31T01:48:36;98972.50;;;5.45;53.86
7178;BME280;3630;42.146;24.756;2023-01-31T01:51:05;98970.06;;;5.50;54.27
7178;BME280;3630;42.146;24.756;2023-01-31T01:53:35;98970.06;;;5.50;54.54
7178;BME280;3630;42.146;24.756;2023-01-31T01:56:07;98964.97;;;5.50;54.34
7178;BME280;3630;42.146;24.756;2023-01-31T01:58:38;98959.94;;;5.51;54.98
7178;BME280;3630;42.146;24.756;2023-01-31T02:01:09;98972.59;;;5.50;55.08
7178;BME280;3630;42.146;24.756;2023-01-31T02:03:38;98966.19;;;5.62;54.47
7178;BME280;3630;42.146;24.756;2023-01-31T02:06:06;98971.22;;;5.61;54.26
7178;BME280;3630;42.146;24.756;2023-01-31T02:08:35;98953.47;;;5.64;54.57
7178;BME280;3630;42.146;24.756;2023-01-31T02:11:07;98947.56;;;5.65;55.10
7178;BME280;3630;42.146;24.756;2023-01-31T02:13:36;98928.94;;;5.67;54.49
7178;BME280;3630;42.146;24.756;2023-01-31T02:16:05;98939.09;;;5.66;54.94
7178;BME280;3630;42.146;24.756;2023-01-31T02:18:33;98934.13;;;5.70;54.26
7178;BME280;3630;42.146;24.756;2023-01-31T02:21:50;98928.47;;;5.82;52.85
7178;BME280;3630;42.146;24.756;2023-01-31T02:33:58;98937.13;;;5.87;53.20
7178;BME280;3630;42.146;24.756;2023-01-31T02:36:36;98939.72;;;5.88;52.61
7178;BME280;3630;42.146;24.756;2023-01-31T02:39:13;98939.78;;;5.90;52.57
7178;BME280;3630;42.146;24.756;2023-01-31T02:41:49;98945.06;;;5.98;51.39
7178;BME280;3630;42.146;24.756;2023-01-31T02:44:22;98939.97;;;5.99;50.99
7178;BME280;3630;42.146;24.756;2023-01-31T02:47:17;98942.75;;;6.07;50.92
7178;BME280;3630;42.146;24.756;2023-01-31T02:49:55;98937.72;;;6.10;50.73
7178;BME280;3630;42.146;24.756;2023-01-31T02:52:29;98935.28;;;6.14;49.93
7178;BME280;3630;42.146;24.756;2023-01-31T02:55:05;98937.81;;;6.14;49.75
7178;BME280;3630;42.146;24.756;2023-01-31T02:57:52;98931.22;;;6.22;49.60
7178;BME280;3630;42.146;24.756;2023-01-31T03:00:22;98928.91;;;6.31;49.02
7178;BME280;3630;42.146;24.756;2023-01-31T03:02:51;98928.84;;;6.30;48.25
7178;BME280;3630;42.146;24.756;2023-01-31T03:05:19;98930.84;;;6.41;48.42
7178;BME280;3630;42.146;24.756;2023-01-31T03:07:49;98925.72;;;6.40;48.46
7178;BME280;3630;42.146;24.756;2023-01-31T03:10:27;98930.91;;;6.44;48.05
7178;BME280;3630;42.146;24.756;2023-01-31T03:13:05;98925.09;;;6.50;47.74
7178;BME280;3630;42.146;24.756;2023-01-31T03:15:44;98928.59;;;6.55;47.40
7178;BME280;3630;42.146;24.756;2023-01-31T03:18:34;98930.91;;;6.44;48.48
7178;BME280;3630;42.146;24.756;2023-01-31T03:21:08;98935.31;;;6.51;48.81
7178;BME280;3630;42.146;24.756;2023-01-31T03:23:40;98895.59;;;6.25;48.13
7178;BME280;3630;42.146;24.756;2023-01-31T03:26:09;98928.25;;;6.40;47.82
7178;BME280;3630;42.146;24.756;2023-01-31T03:28:39;98938.50;;;6.43;47.79
7178;BME280;3630;42.146;24.756;2023-01-31T03:31:13;98928.31;;;6.43;47.17
7178;BME280;3630;42.146;24.756;2023-01-31T03:33:44;98933.31;;;6.38;47.26
7178;BME280;3630;42.146;24.756;2023-01-31T03:36:22;98937.38;;;6.30;47.50
7178;BME280;3630;42.146;24.756;2023-01-31T03:38:56;98944.22;;;6.31;47.42
7178;BME280;3630;42.146;24.756;2023-01-31T03:41:30;98944.13;;;6.28;47.70
7178;BME280;3630;42.146;24.756;2023-01-31T03:44:04;98954.13;;;6.21;47.73
7178;BME280;3630;42.146;24.756;2023-01-31T03:46:34;98950.50;;;6.11;47.74
7178;BME280;3630;42.146;24.756;2023-01-31T03:49:07;98947.06;;;6.09;47.61
7178;BME280;3630;42.146;24.756;2023-01-31T03:52:08;98950.34;;;6.05;47.31
7178;BME280;3630;42.146;24.756;2023-01-31T03:54:41;98956.06;;;5.97;47.23
7178;BME280;3630;42.146;24.756;2023-01-31T03:57:13;98951.75;;;5.94;46.70
7178;BME280;3630;42.146;24.756;2023-01-31T03:59:45;98950.03;;;5.93;47.15
7178;BME280;3630;42.146;24.756;2023-01-31T04:02:15;98955.06;;;5.90;45.73
7178;BME280;3630;42.146;24.756;2023-01-31T04:04:46;98956.69;;;5.88;44.89
7178;BME280;3630;42.146;24.756;2023-01-31T04:07:15;98959.22;;;5.86;45.63
7178;BME280;3630;42.146;24.756;2023-01-31T04:09:43;98955.84;;;5.87;44.88
7178;BME280;3630;42.146;24.756;2023-01-31T04:12:12;98951.97;;;5.72;45.10
7178;BME280;3630;42.146;24.756;2023-01-31T04:14:39;98965.69;;;5.75;44.93
7178;BME280;3630;42.146;24.756;2023-01-31T04:17:06;98968.94;;;5.70;45.78
7178;BME280;3630;42.146;24.756;2023-01-31T04:19:33;98977.44;;;5.70;45.33
7178;BME280;3630;42.146;24.756;2023-01-31T04:21:59;98982.44;;;5.66;44.99
7178;BME280;3630;42.146;24.756;2023-01-31T04:24:28;98976.47;;;5.67;45.71
7178;BME280;3630;42.146;24.756;2023-01-31T04:26:54;98981.31;;;5.58;46.32
7178;BME280;3630;42.146;24.756;2023-01-31T04:29:21;98992.22;;;5.52;47.07
7178;BME280;3630;42.146;24.756;2023-01-31T04:31:48;98983.63;;;5.49;46.57
7178;BME280;3630;42.146;24.756;2023-01-31T04:34:18;98980.81;;;5.40;47.32
7178;BME280;3630;42.146;24.756;2023-01-31T04:36:44;98989.22;;;5.35;47.85
7178;BME280;3630;42.146;24.756;2023-01-31T04:39:11;98982.09;;;5.24;47.58
7178;BME280;3630;42.146;24.756;2023-01-31T04:41:41;98993.94;;;5.23;48.49
7178;BME280;3630;42.146;24.756;2023-01-31T04:44:08;99024.50;;;5.23;48.85
7178;BME280;3630;42.146;24.756;2023-01-31T04:46:36;98990.41;;;5.18;49.62
7178;BME280;3630;42.146;24.756;2023-01-31T04:49:03;99022.50;;;5.13;48.99
7178;BME280;3630;42.146;24.756;2023-01-31T04:51:30;99017.50;;;5.16;49.77
7178;BME280;3630;42.146;24.756;2023-01-31T04:53:57;99017.94;;;5.03;49.65
7178;BME280;3630;42.146;24.756;2023-01-31T04:56:24;99016.38;;;5.07;50.28
7178;BME280;3630;42.146;24.756;2023-01-31T04:58:52;99005.97;;;5.01;49.87
7178;BME280;3630;42.146;24.756;2023-01-31T05:01:19;99013.81;;;5.07;50.01
7178;BME280;3630;42.146;24.756;2023-01-31T05:03:45;99017.16;;;5.06;50.26
7178;BME280;3630;42.146;24.756;2023-01-31T05:06:12;99012.66;;;4.97;50.24
7178;BME280;3630;42.146;24.756;2023-01-31T05:08:39;98990.38;;;4.89;50.50
7178;BME280;3630;42.146;24.756;2023-01-31T05:11:06;99000.69;;;4.95;50.68
7178;BME280;3630;42.146;24.756;2023-01-31T05:13:34;99002.13;;;4.85;50.56
7178;BME280;3630;42.146;24.756;2023-01-31T05:16:05;99007.97;;;4.83;50.38
7178;BME280;3630;42.146;24.756;2023-01-31T05:18:32;99005.38;;;4.81;50.71
7178;BME280;3630;42.146;24.756;2023-01-31T05:21:01;99028.13;;;4.75;51.56
7178;BME280;3630;42.146;24.756;2023-01-31T05:23:28;99016.97;;;4.71;51.97
7178;BME280;3630;42.146;24.756;2023-01-31T05:25:55;99021.09;;;4.68;52.58
7178;BME280;3630;42.146;24.756;2023-01-31T05:28:22;99020.84;;;4.60;52.32
7178;BME280;3630;42.146;24.756;2023-01-31T05:30:50;99020.09;;;4.63;51.62
7178;BME280;3630;42.146;24.756;2023-01-31T05:33:18;99020.88;;;4.62;52.63
7178;BME280;3630;42.146;24.756;2023-01-31T05:35:45;99021.94;;;4.68;52.18
7178;BME280;3630;42.146;24.756;2023-01-31T05:38:12;99027.81;;;4.66;51.66
7178;BME280;3630;42.146;24.756;2023-01-31T05:40:39;99034.53;;;4.64;52.26
7178;BME280;3630;42.146;24.756;2023-01-31T05:43:06;99048.97;;;4.65;51.97
7178;BME280;3630;42.146;24.756;2023-01-31T05:45:32;99034.59;;;4.67;51.19
7178;BME280;3630;42.146;24.756;2023-01-31T05:48:00;99021.63;;;4.58;51.08
7178;BME280;3630;42.146;24.756;2023-01-31T05:50:28;99042.34;;;4.70;51.61
7178;BME280;3630;42.146;24.756;2023-01-31T05:52:59;99008.72;;;4.53;51.70
7178;BME280;3630;42.146;24.756;2023-01-31T05:55:27;99034.56;;;4.65;52.41
7178;BME280;3630;42.146;24.756;2023-01-31T05:57:55;99039.69;;;4.67;52.74
7178;BME280;3630;42.146;24.756;2023-01-31T06:00:22;99043.88;;;4.65;52.69
7178;BME280;3630;42.146;24.756;2023-01-31T06:02:49;99049.59;;;4.58;52.98
7178;BME280;3630;42.146;24.756;2023-01-31T06:05:16;99063.03;;;4.54;53.66
7178;BME280;3630;42.146;24.756;2023-01-31T06:07:44;99064.88;;;4.58;53.77
7178;BME280;3630;42.146;24.756;2023-01-31T06:10:11;99082.78;;;4.61;53.62
7178;BME280;3630;42.146;24.756;2023-01-31T06:12:38;99077.47;;;4.55;53.84
7178;BME280;3630;42.146;24.756;2023-01-31T06:15:05;99090.41;;;4.61;53.88
7178;BME280;3630;42.146;24.756;2023-01-31T06:17:32;99049.41;;;4.52;54.27
7178;BME280;3630;42.146;24.756;2023-01-31T06:19:59;99077.78;;;4.64;54.16
7178;BME280;3630;42.146;24.756;2023-01-31T06:22:26;99070.34;;;4.70;54.13
7178;BME280;3630;42.146;24.756;2023-01-31T06:24:54;99080.69;;;4.74;53.66
7178;BME280;3630;42.146;24.756;2023-01-31T06:27:21;99075.72;;;4.79;53.56
7178;BME280;3630;42.146;24.756;2023-01-31T06:29:48;99081.72;;;4.81;53.00
7178;BME280;3630;42.146;24.756;2023-01-31T06:32:14;99077.94;;;4.95;52.98
7178;BME280;3630;42.146;24.756;2023-01-31T06:34:41;99077.94;;;4.95;51.98
7178;BME280;3630;42.146;24.756;2023-01-31T06:37:08;99085.78;;;5.01;52.29
7178;BME280;3630;42.146;24.756;2023-01-31T06:39:35;99084.78;;;4.96;52.58
7178;BME280;3630;42.146;24.756;2023-01-31T06:42:04;99092.50;;;4.99;52.38
7178;BME280;3630;42.146;24.756;2023-01-31T06:44:31;99108.13;;;5.10;53.54
7178;BME280;3630;42.146;24.756;2023-01-31T06:46:58;99083.94;;;5.24;52.92
7178;BME280;3630;42.146;24.756;2023-01-31T06:49:25;99106.28;;;5.32;52.65
7178;BME280;3630;42.146;24.756;2023-01-31T06:51:52;99092.19;;;5.44;52.62
7178;BME280;3630;42.146;24.756;2023-01-31T06:54:18;99100.81;;;5.49;51.76
7178;BME280;3630;42.146;24.756;2023-01-31T06:56:45;99109.38;;;5.51;52.36
7178;BME280;3630;42.146;24.756;2023-01-31T06:59:14;99110.34;;;5.54;52.50
7178;BME280;3630;42.146;24.756;2023-01-31T07:01:41;99110.75;;;5.68;52.48
7178;BME280;3630;42.146;24.756;2023-01-31T07:04:08;99120.19;;;5.72;52.31
7178;BME280;3630;42.146;24.756;2023-01-31T07:06:34;99100.03;;;5.79;52.12
7178;BME280;3630;42.146;24.756;2023-01-31T07:09:02;99117.00;;;5.79;51.96
7178;BME280;3630;42.146;24.756;2023-01-31T07:11:29;99121.28;;;5.80;51.89
7178;BME280;3630;42.146;24.756;2023-01-31T07:13:55;99131.84;;;5.90;51.97
7178;BME280;3630;42.146;24.756;2023-01-31T07:16:24;99131.75;;;5.87;52.12
7178;BME280;3630;42.146;24.756;2023-01-31T07:18:51;99122.38;;;5.88;52.25
7178;BME280;3630;42.146;24.756;2023-01-31T07:21:18;99131.13;;;5.96;51.71
7178;BME280;3630;42.146;24.756;2023-01-31T07:23:46;99127.75;;;5.97;51.88
7178;BME280;3630;42.146;24.756;2023-01-31T07:26:13;99130.13;;;5.91;52.05
7178;BME280;3630;42.146;24.756;2023-01-31T07:28:40;99140.72;;;6.05;52.43
7178;BME280;3630;42.146;24.756;2023-01-31T07:31:09;99136.53;;;6.07;51.74
7178;BME280;3630;42.146;24.756;2023-01-31T07:33:39;99151.16;;;6.12;51.78
7178;BME280;3630;42.146;24.756;2023-01-31T07:36:07;99139.31;;;6.14;51.71
7178;BME280;3630;42.146;24.756;2023-01-31T07:38:36;99151.28;;;6.18;51.25
7178;BME280;3630;42.146;24.756;2023-01-31T07:41:03;99146.44;;;6.26;51.48
7178;BME280;3630;42.146;24.756;2023-01-31T07:43:30;99146.72;;;6.36;51.04
7178;BME280;3630;42.146;24.756;2023-01-31T07:45:57;99139.94;;;6.37;50.34
7178;BME280;3630;42.146;24.756;2023-01-31T07:48:24;99153.88;;;6.49;50.37
7178;BME280;3630;42.146;24.756;2023-01-31T07:50:57;99156.69;;;6.60;49.87
7178;BME280;3630;42.146;24.756;2023-01-31T07:53:26;99163.75;;;6.69;49.73
7178;BME280;3630;42.146;24.756;2023-01-31T07:55:53;99173.06;;;6.67;49.33
7178;BME280;3630;42.146;24.756;2023-01-31T07:58:20;99148.25;;;6.63;49.28
7178;BME280;3630;42.146;24.756;2023-01-31T08:00:46;99150.09;;;6.67;48.82
7178;BME280;3630;42.146;24.756;2023-01-31T08:03:30;99150.66;;;6.57;48.40
7178;BME280;3630;42.146;24.756;2023-01-31T08:06:06;99154.47;;;6.72;48.55
7178;BME280;3630;42.146;24.756;2023-01-31T08:08:34;99163.13;;;6.79;48.22
7178;BME280;3630;42.146;24.756;2023-01-31T08:11:01;99165.75;;;6.80;48.71
7178;BME280;3630;42.146;24.756;2023-01-31T08:13:29;99170.88;;;6.80;48.08
7178;BME280;3630;42.146;24.756;2023-01-31T08:15:56;99169.38;;;6.90;49.01
7178;BME280;3630;42.146;24.756;2023-01-31T08:18:24;99175.94;;;7.13;49.45
7178;BME280;3630;42.146;24.756;2023-01-31T08:20:51;99178.91;;;7.30;48.71
7178;BME280;3630;42.146;24.756;2023-01-31T08:23:19;99179.56;;;7.21;47.77
7178;BME280;3630;42.146;24.756;2023-01-31T08:25:46;99177.22;;;7.30;47.96
7178;BME280;3630;42.146;24.756;2023-01-31T08:28:13;99172.13;;;7.30;48.13
7178;BME280;3630;42.146;24.756;2023-01-31T08:30:40;99172.03;;;7.27;48.04
7178;BME280;3630;42.146;24.756;2023-01-31T08:33:08;99173.81;;;7.31;47.50
7178;BME280;3630;42.146;24.756;2023-01-31T08:35:35;99183.41;;;7.40;47.46
7178;BME280;3630;42.146;24.756;2023-01-31T08:38:04;99173.88;;;7.33;46.96
7178;BME280;3630;42.146;24.756;2023-01-31T08:40:33;99186.66;;;7.33;47.25
7178;BME280;3630;42.146;24.756;2023-01-31T08:43:00;99179.09;;;7.37;47.47
7178;BME280;3630;42.146;24.756;2023-01-31T08:45:27;99162.88;;;7.35;47.80
7178;BME280;3630;42.146;24.756;2023-01-31T08:47:55;99176.19;;;7.59;47.14
7178;BME280;3630;42.146;24.756;2023-01-31T08:50:24;99183.22;;;7.68;47.14
7178;BME280;3630;42.146;24.756;2023-01-31T08:52:52;99185.47;;;7.56;47.56
7178;BME280;3630;42.146;24.756;2023-01-31T08:55:19;99195.59;;;7.51;46.91
7178;BME280;3630;42.146;24.756;2023-01-31T08:57:48;99189.69;;;7.54;47.39
7178;BME280;3630;42.146;24.756;2023-01-31T09:00:17;99190.28;;;7.42;47.22
7178;BME280;3630;42.146;24.756;2023-01-31T09:02:44;99131.75;;;7.17;47.36
7178;BME280;3630;42.146;24.756;2023-01-31T09:05:16;99188.81;;;7.52;48.03
7178;BME280;3630;42.146;24.756;2023-01-31T09:07:43;99197.13;;;7.43;47.16
7178;BME280;3630;42.146;24.756;2023-01-31T09:10:10;99197.88;;;7.39;47.92
7178;BME280;3630;42.146;24.756;2023-01-31T09:12:37;99197.78;;;7.36;48.14
7178;BME280;3630;42.146;24.756;2023-01-31T09:15:06;99191.91;;;7.39;47.73
7178;BME280;3630;42.146;24.756;2023-01-31T09:17:33;99198.25;;;7.54;47.63
7178;BME280;3630;42.146;24.756;2023-01-31T09:20:00;99205.91;;;7.54;47.21
7178;BME280;3630;42.146;24.756;2023-01-31T09:22:31;99204.53;;;7.68;47.32
7178;BME280;3630;42.146;24.756;2023-01-31T09:24:58;99207.13;;;7.70;46.85
7178;BME280;3630;42.146;24.756;2023-01-31T09:27:25;99176.44;;;7.70;46.15
7178;BME280;3630;42.146;24.756;2023-01-31T09:29:53;99197.41;;;7.93;46.34
7178;BME280;3630;42.146;24.756;2023-01-31T09:32:21;99186.28;;;7.91;45.84
7178;BME280;3630;42.146;24.756;2023-01-31T09:34:48;99192.06;;;7.82;45.80
7178;BME280;3630;42.146;24.756;2023-01-31T09:37:15;99180.81;;;7.76;46.03
7178;BME280;3630;42.146;24.756;2023-01-31T09:39:42;99177.09;;;7.61;46.55
7178;BME280;3630;42.146;24.756;2023-01-31T09:42:17;99191.56;;;7.61;46.95
7178;BME280;3630;42.146;24.756;2023-01-31T09:44:55;99178.84;;;7.64;46.94
7178;BME280;3630;42.146;24.756;2023-01-31T09:47:25;99148.28;;;7.68;46.69
7178;BME280;3630;42.146;24.756;2023-01-31T09:49:57;99166.66;;;7.91;46.62
7178;BME280;3630;42.146;24.756;2023-01-31T09:52:26;99163.50;;;8.01;46.78
7178;BME280;3630;42.146;24.756;2023-01-31T09:54:55;99163.66;;;8.10;46.88
7178;BME280;3630;42.146;24.756;2023-01-31T09:57:28;99160.34;;;8.14;45.98
7178;BME280;3630;42.146;24.756;2023-01-31T10:00:05;99169.72;;;8.14;45.65
7178;BME280;3630;42.146;24.756;2023-01-31T10:05:49;99143.03;;;8.01;44.58
7178;BME280;3630;42.146;24.756;2023-01-31T10:08:21;99129.31;;;7.98;45.00
7178;BME280;3630;42.146;24.756;2023-01-31T10:10:54;99045.03;;;7.62;44.92
7178;BME280;3630;42.146;24.756;2023-01-31T10:13:27;99134.03;;;8.20;44.34
7178;BME280;3630;42.146;24.756;2023-01-31T10:16:03;99139.31;;;8.27;44.90
7178;BME280;3630;42.146;24.756;2023-01-31T10:18:39;99135.13;;;8.31;44.02
7178;BME280;3630;42.146;24.756;2023-01-31T10:21:12;99121.41;;;8.27;44.31
7178;BME280;3630;42.146;24.756;2023-01-31T10:23:43;99121.47;;;8.30;44.18
7178;BME280;3630;42.146;24.756;2023-01-31T10:26:16;99134.25;;;8.29;45.47
7178;BME280;3630;42.146;24.756;2023-01-31T10:28:48;99119.78;;;8.31;44.10
7178;BME280;3630;42.146;24.756;2023-01-31T10:31:26;99125.91;;;8.41;43.71
7178;BME280;3630;42.146;24.756;2023-01-31T10:33:59;99122.50;;;8.40;43.84
7178;BME280;3630;42.146;24.756;2023-01-31T10:36:32;99114.16;;;8.50;44.19
7178;BME280;3630;42.146;24.756;2023-01-31T10:39:05;99112.66;;;8.63;43.95
7178;BME280;3630;42.146;24.756;2023-01-31T10:41:40;99118.53;;;8.57;44.29
7178;BME280;3630;42.146;24.756;2023-01-31T10:44:17;99100.53;;;8.53;44.07
7178;BME280;3630;42.146;24.756;2023-01-31T10:46:47;99104.97;;;8.61;44.00
7178;BME280;3630;42.146;24.756;2023-01-31T10:49:16;99095.72;;;8.68;44.13
7178;BME280;3630;42.146;24.756;2023-01-31T10:51:55;99070.63;;;8.49;44.52
7178;BME280;3630;42.146;24.756;2023-01-31T10:54:35;99093.16;;;8.68;43.76
7178;BME280;3630;42.146;24.756;2023-01-31T10:57:05;99086.06;;;8.55;43.62
7178;BME280;3630;42.146;24.756;2023-01-31T10:59:33;99105.22;;;8.76;43.60
7178;BME280;3630;42.146;24.756;2023-01-31T11:02:02;99080.66;;;8.87;43.55
7178;BME280;3630;42.146;24.756;2023-01-31T11:04:34;99069.81;;;9.04;43.29
7178;BME280;3630;42.146;24.756;2023-01-31T11:07:04;99078.56;;;9.16;42.69
7178;BME280;3630;42.146;24.756;2023-01-31T11:09:33;99074.44;;;9.29;42.44
7178;BME280;3630;42.146;24.756;2023-01-31T11:12:02;99078.81;;;9.34;42.31
7178;BME280;3630;42.146;24.756;2023-01-31T11:14:29;99089.25;;;9.46;42.02
7178;BME280;3630;42.146;24.756;2023-01-31T11:17:00;99085.72;;;9.38;41.98
7178;BME280;3630;42.146;24.756;2023-01-31T11:19:34;99077.09;;;9.35;42.46
7178;BME280;3630;42.146;24.756;2023-01-31T11:22:03;99072.91;;;9.40;42.61
7178;BME280;3630;42.146;24.756;2023-01-31T11:24:32;99091.13;;;9.58;42.59
7178;BME280;3630;42.146;24.756;2023-01-31T11:27:01;99096.78;;;9.36;42.46
7178;BME280;3630;42.146;24.756;2023-01-31T11:29:31;99082.25;;;9.35;42.50
7178;BME280;3630;42.146;24.756;2023-01-31T11:32:02;99065.94;;;9.30;42.32
7178;BME280;3630;42.146;24.756;2023-01-31T11:34:31;99062.56;;;9.34;42.18
7178;BME280;3630;42.146;24.756;2023-01-31T11:37:14;99082.13;;;9.27;42.56
7178;BME280;3630;42.146;24.756;2023-01-31T11:39:41;99076.91;;;9.21;43.30
7178;BME280;3630;42.146;24.756;2023-01-31T11:42:19;99070.06;;;9.20;42.59
7178;BME280;3630;42.146;24.756;2023-01-31T11:44:54;99055.22;;;8.98;43.18
7178;BME280;3630;42.146;24.756;2023-01-31T11:47:30;99058.72;;;9.03;43.71
7178;BME280;3630;42.146;24.756;2023-01-31T11:49:59;99056.00;;;8.94;44.02
7178;BME280;3630;42.146;24.756;2023-01-31T11:52:30;99063.63;;;8.91;43.97
7178;BME280;3630;42.146;24.756;2023-01-31T11:55:00;99056.78;;;8.90;44.45
7178;BME280;3630;42.146;24.756;2023-01-31T11:57:31;99070.44;;;8.90;44.70
7178;BME280;3630;42.146;24.756;2023-01-31T12:00:00;99063.34;;;8.74;45.33
7178;BME280;3630;42.146;24.756;2023-01-31T12:02:34;99053.00;;;8.68;45.42
7178;BME280;3630;42.146;24.756;2023-01-31T12:05:08;99060.69;;;8.67;45.66
7178;BME280;3630;42.146;24.756;2023-01-31T12:07:43;99064.13;;;8.69;45.73
7178;BME280;3630;42.146;24.756;2023-01-31T12:10:32;99075.22;;;8.69;45.63
7178;BME280;3630;42.146;24.756;2023-01-31T12:13:00;99079.47;;;8.67;45.01
7178;BME280;3630;42.146;24.756;2023-01-31T12:15:28;99070.09;;;8.68;44.88
7178;BME280;3630;42.146;24.756;2023-01-31T12:17:57;99089.72;;;8.67;44.73
7178;BME280;3630;42.146;24.756;2023-01-31T12:20:35;99097.13;;;8.52;45.52
7178;BME280;3630;42.146;24.756;2023-01-31T12:23:17;99091.88;;;8.45;45.28
7178;BME280;3630;42.146;24.756;2023-01-31T12:25:53;99102.13;;;8.46;45.39
7178;BME280;3630;42.146;24.756;2023-01-31T12:28:36;99100.34;;;8.42;45.96
7178;BME280;3630;42.146;24.756;2023-01-31T12:31:24;99101.97;;;8.37;45.46
7178;BME280;3630;42.146;24.756;2023-01-31T12:34:09;99108.75;;;8.35;45.71
7178;BME280;3630;42.146;24.756;2023-01-31T12:36:46;99103.63;;;8.35;45.75
7178;BME280;3630;42.146;24.756;2023-01-31T12:39:34;99096.09;;;8.43;45.79
7178;BME280;3630;42.146;24.756;2023-01-31T12:42:18;99103.78;;;8.44;46.85
7178;BME280;3630;42.146;24.756;2023-01-31T12:44:51;99104.59;;;8.42;47.12
7178;BME280;3630;42.146;24.756;2023-01-31T12:50:31;99107.28;;;8.49;47.27
7178;BME280;3630;42.146;24.756;2023-01-31T12:53:31;99106.41;;;8.47;47.33
7178;BME280;3630;42.146;24.756;2023-01-31T12:56:15;99104.84;;;8.54;47.03
7178;BME280;3630;42.146;24.756;2023-01-31T12:58:50;99113.41;;;8.56;47.57
7178;BME280;3630;42.146;24.756;2023-01-31T13:01:26;99108.97;;;8.47;47.11
7178;BME280;3630;42.146;24.756;2023-01-31T13:04:11;99109.72;;;8.40;48.13
7178;BME280;3630;42.146;24.756;2023-01-31T13:06:44;99118.97;;;8.34;48.13
7178;BME280;3630;42.146;24.756;2023-01-31T13:09:18;99128.84;;;8.17;50.49
7178;BME280;3630;42.146;24.756;2023-01-31T13:11:49;99118.81;;;7.86;52.83
7178;BME280;3630;42.146;24.756;2023-01-31T13:14:20;99113.59;;;7.80;54.31
7178;BME280;3630;42.146;24.756;2023-01-31T13:16:52;99104.19;;;7.79;55.10
7178;BME280;3630;42.146;24.756;2023-01-31T13:19:24;99101.50;;;7.72;54.59
7178;BME280;3630;42.146;24.756;2023-01-31T13:21:56;99110.03;;;7.73;54.27
7178;BME280;3630;42.146;24.756;2023-01-31T13:24:26;99113.38;;;7.69;54.58
7178;BME280;3630;42.146;24.756;2023-01-31T13:26:58;99108.13;;;7.63;53.87
7178;BME280;3630;42.146;24.756;2023-01-31T13:29:31;99114.34;;;7.76;53.88
7178;BME280;3630;42.146;24.756;2023-01-31T13:32:01;99110.28;;;7.85;53.33
7178;BME280;3630;42.146;24.756;2023-01-31T13:34:34;99114.75;;;7.94;53.45
7178;BME280;3630;42.146;24.756;2023-01-31T13:37:08;99123.72;;;8.17;51.65
7178;BME280;3630;42.146;24.756;2023-01-31T13:39:39;99122.41;;;8.36;51.83
7178;BME280;3630;42.146;24.756;2023-01-31T13:42:11;99123.25;;;8.35;51.48
7178;BME280;3630;42.146;24.756;2023-01-31T13:44:39;99108.56;;;8.26;50.78
7178;BME280;3630;42.146;24.756;2023-01-31T13:47:14;99127.22;;;8.20;50.64
7178;BME280;3630;42.146;24.756;2023-01-31T13:49:46;99128.16;;;8.24;50.19
7178;BME280;3630;42.146;24.756;2023-01-31T13:52:19;99135.56;;;8.12;49.13
7178;BME280;3630;42.146;24.756;2023-01-31T13:54:50;99099.41;;;7.95;50.50